Time;durP1;ratioP1;P1;durP2;ratioP2;P2;SDS_P1;SDS_P2;PMS_P1;PMS_P2;Temp;Humidity;BMP_temperature;BMP_pressure;BME280_temperature;BME280_humidity;BME280_pressure;Samples;Min_cycle;Max_cycle;Signal;HPM_P1;HPM_P2
2022/06/22 00:07:41;;;;;;;7.50;2.03;;;;;;;20.41;60.45;99770.63;20973901;28;20493;-69
2022/06/22 00:17:43;;;;;;;6.95;2.20;;;;;;;20.04;64.69;99750.94;20974881;28;20504;-69
2022/06/22 00:27:44;;;;;;;4.88;2.13;;;;;;;19.72;66.66;99760.97;20974544;28;20443;-69
2022/06/22 00:37:46;;;;;;;6.00;2.35;;;;;;;19.83;64.08;99712.47;20971866;28;20455;-69
2022/06/22 00:48:21;;;;;;;6.80;2.53;;;;;;;19.70;66.04;99723.88;20972429;28;20152;-71
2022/06/22 00:58:52;;;;;;;7.93;2.70;;;;;;;19.71;63.58;99741.53;20964387;28;20381;-69
2022/06/22 01:09:32;;;;;;;4.22;1.83;;;;;;;19.64;63.71;99763.25;20971581;28;20485;-71
2022/06/22 01:19:56;;;;;;;7.07;2.30;;;;;;;19.55;62.53;99779.75;20845836;28;20049;-70
2022/06/22 01:30:00;;;;;;;3.50;2.00;;;;;;;19.70;61.35;99816.84;20888530;28;20045;-69
2022/06/22 01:40:13;;;;;;;3.67;1.70;;;;;;;19.65;60.89;99776.44;20886375;28;20041;-69
2022/06/22 01:50:38;;;;;;;5.75;1.95;;;;;;;19.70;59.19;99750.44;20887181;28;20045;-69
2022/06/22 02:00:48;;;;;;;4.25;1.95;;;;;;;19.75;60.38;99747.50;20886889;28;20045;-72
2022/06/22 02:11:01;;;;;;;6.15;2.25;;;;;;;19.57;61.38;99757.44;20886117;28;20045;-68
2022/06/22 02:21:23;;;;;;;3.10;1.73;;;;;;;19.42;61.41;99742.50;20896544;28;20155;-68
2022/06/22 02:31:24;;;;;;;4.90;2.00;;;;;;;18.94;63.81;99726.00;20900129;28;20505;-68
2022/06/22 02:51:48;;;;;;;5.13;2.05;;;;;;;18.75;65.92;99736.03;20978867;28;20044;-70
2022/06/22 03:01:50;;;;;;;3.83;2.05;;;;;;;18.62;67.35;99734.06;20980511;28;20245;-70
2022/06/22 03:11:55;;;;;;;7.82;2.20;;;;;;;18.83;65.33;99739.03;20939291;28;20133;-69
2022/06/22 03:21:56;;;;;;;5.45;2.30;;;;;;;18.85;66.58;99753.94;20900387;28;20102;-69
2022/06/22 03:32:03;;;;;;;3.78;2.10;;;;;;;18.85;64.36;99747.78;20899055;28;20044;-70
2022/06/22 03:42:13;;;;;;;4.63;2.08;;;;;;;18.71;65.82;99746.78;20895200;28;20048;-71
2022/06/22 03:52:31;;;;;;;4.25;2.08;;;;;;;18.81;67.53;99783.38;20903197;28;20607;-68
2022/06/22 04:02:33;;;;;;;4.57;2.00;;;;;;;18.97;67.65;99800.06;20902692;28;20421;-70
2022/06/22 04:12:40;;;;;;;4.15;1.88;;;;;;;19.10;67.62;99809.00;20948000;28;20053;-69
2022/06/22 04:22:46;;;;;;;3.85;1.80;;;;;;;19.19;66.26;99821.72;20924614;28;20053;-66
2022/06/22 04:33:11;;;;;;;4.47;2.30;;;;;;;19.04;66.75;99806.75;20891303;28;20045;-67
2022/06/22 04:43:13;;;;;;;;;;;;;;;18.79;66.54;99779.97;20891476;28;20056;-66
2022/06/22 04:53:17;;;;;;;4.78;2.20;;;;;;;18.65;68.32;99792.22;20889801;28;19924;-66
2022/06/22 05:03:18;;;;;;;6.83;2.77;;;;;;;18.68;67.59;99794.75;20889026;28;20049;-66
2022/06/22 05:13:33;;;;;;;8.30;2.13;;;;;;;18.56;68.32;99795.41;20888919;28;20045;-66
2022/06/22 05:23:34;;;;;;;7.13;2.37;;;;;;;18.63;76.25;99814.44;20888748;28;20052;-69
2022/06/22 05:33:40;;;;;;;5.72;2.15;;;;;;;18.35;77.83;99812.53;20887854;28;20049;-68
2022/06/22 05:43:42;;;;;;;4.93;2.33;;;;;;;18.65;77.37;99861.16;20966420;28;20632;-68
2022/06/22 05:54:13;;;;;;;5.35;2.38;;;;;;;19.14;73.77;99898.13;20978876;28;20044;-68
2022/06/22 06:04:24;;;;;;;4.80;2.10;;;;;;;19.30;68.50;99870.66;20985134;28;20048;-70
2022/06/22 06:14:37;;;;;;;4.88;2.35;;;;;;;19.19;68.62;99874.81;20984429;28;20072;-69
2022/06/22 06:35:16;;;;;;;7.35;2.22;;;;;;;19.23;75.43;99868.38;20978887;28;20044;-69
2022/06/22 06:45:22;;;;;;;5.57;2.22;;;;;;;19.15;72.30;99862.66;20978902;28;20048;-68
2022/06/22 06:55:42;;;;;;;5.63;2.45;;;;;;;19.00;74.40;99863.59;20967921;28;20056;-68
2022/06/22 07:05:44;;;;;;;6.63;2.50;;;;;;;18.82;76.92;99854.03;20920108;28;20044;-69
2022/06/22 07:15:51;;;;;;;6.97;2.70;;;;;;;19.06;84.34;99860.56;20901747;28;20040;-68
2022/06/22 07:25:58;;;;;;;5.45;2.80;;;;;;;18.78;89.93;99863.13;20893414;28;20041;-68
2022/06/22 07:36:42;;;;;;;7.75;2.95;;;;;;;18.66;88.87;99854.91;20898255;28;20053;-69
2022/06/22 07:46:49;;;;;;;9.82;2.50;;;;;;;18.63;88.97;99844.47;20881670;28;20053;-68
2022/06/22 07:57:10;;;;;;;5.57;2.78;;;;;;;18.75;87.46;99842.94;20890564;28;20064;-67
2022/06/22 08:07:17;;;;;;;7.00;2.83;;;;;;;19.00;85.34;99850.31;20967664;28;20680;-67
2022/06/22 08:17:46;;;;;;;4.63;2.70;;;;;;;19.23;87.17;99884.31;20907896;28;20055;-67
2022/06/22 08:27:48;;;;;;;6.90;2.63;;;;;;;19.60;82.65;99903.38;20888563;28;20044;-67
2022/06/22 08:38:01;;;;;;;7.78;3.28;;;;;;;19.65;79.66;99887.16;20887570;28;20041;-69
2022/06/22 08:48:12;;;;;;;7.43;2.97;;;;;;;19.41;84.70;99884.16;20886823;28;20049;-67
2022/06/22 08:58:39;;;;;;;5.75;2.83;;;;;;;19.67;85.91;99893.22;20886377;28;20045;-67
2022/06/22 09:09:10;;;;;;;9.82;3.83;;;;;;;18.89;100.00;99898.72;20968244;28;20078;-70
2022/06/22 09:19:46;;;;;;;7.85;4.55;;;;;;;17.83;100.00;99900.22;20887677;28;20505;-70
2022/06/22 09:30:14;;;;;;;9.25;4.90;;;;;;;17.95;100.00;99918.09;20950122;28;20052;-66
2022/06/22 09:40:31;;;;;;;10.27;5.68;;;;;;;18.29;100.00;99913.59;20985559;28;20045;-64
2022/06/22 09:50:57;;;;;;;12.10;5.40;;;;;;;18.43;100.00;99916.34;20983794;28;20102;-65
2022/06/22 10:01:18;;;;;;;8.48;4.80;;;;;;;18.65;100.00;99889.47;20983291;28;20701;-65
2022/06/22 10:11:32;;;;;;;9.90;5.40;;;;;;;19.18;100.00;99910.25;20968457;28;20048;-65
2022/06/22 10:22:18;;;;;;;10.70;4.18;;;;;;;19.65;98.99;99914.56;20900433;28;20048;-65
2022/06/22 10:32:38;;;;;;;8.02;5.07;;;;;;;20.47;100.00;99902.38;20646633;28;20052;-65
2022/06/22 10:53:39;;;;;;;13.52;6.72;;;;;;;20.35;100.00;99913.75;20899846;28;20123;-66
2022/06/22 11:03:46;;;;;;;11.07;6.43;;;;;;;19.88;100.00;99925.56;20895119;28;20056;-71
2022/06/22 11:13:56;;;;;;;8.65;5.35;;;;;;;20.04;100.00;99928.13;20900470;28;20037;-68
2022/06/22 11:24:05;;;;;;;11.02;6.32;;;;;;;20.40;94.75;99933.78;20893907;28;20131;-68
2022/06/22 11:34:28;;;;;;;10.55;5.65;;;;;;;20.50;97.36;99950.03;20892538;28;20563;-68
2022/06/22 11:55:27;;;;;;;12.13;7.97;;;;;;;20.30;100.00;99955.72;20894201;28;20049;-73
2022/06/22 12:05:54;;;;;;;12.83;7.00;;;;;;;20.42;100.00;99949.66;20890665;28;20052;-69
2022/06/22 12:16:24;;;;;;;10.77;6.78;;;;;;;20.28;100.00;99957.66;20895832;28;20087;-68
2022/06/22 12:26:44;;;;;;;10.50;7.45;;;;;;;20.34;100.00;99941.31;20889454;28;20049;-68
2022/06/22 12:36:51;;;;;;;13.90;7.63;;;;;;;20.49;100.00;99911.94;20888106;28;20041;-67
2022/06/22 12:47:04;;;;;;;13.43;8.30;;;;;;;21.13;100.00;99906.88;20887592;28;20110;-64
2022/06/22 12:57:14;;;;;;;11.50;7.35;;;;;;;21.02;100.00;99904.06;20891418;28;20641;-64
2022/06/22 13:07:19;;;;;;;11.60;8.05;;;;;;;21.16;100.00;99887.16;20884956;28;20106;-64
2022/06/22 13:17:40;;;;;;;15.75;11.13;;;;;;;21.10;100.00;99884.91;20892032;28;20048;-65
2022/06/22 13:27:58;;;;;;;15.45;10.65;;;;;;;21.29;100.00;99865.88;20885434;28;20061;-65
2022/06/22 13:38:22;;;;;;;19.60;11.63;;;;;;;21.00;100.00;99863.38;20884561;28;20040;-64
2022/06/22 13:49:01;;;;;;;15.50;12.38;;;;;;;21.09;100.00;99862.78;20884613;28;20425;-65
2022/06/22 13:59:13;;;;;;;15.60;12.20;;;;;;;20.91;100.00;99853.34;20884678;28;20579;-65
2022/06/22 14:09:24;;;;;;;14.85;12.02;;;;;;;20.79;100.00;99865.66;20962222;28;20087;-67
2022/06/22 14:19:44;;;;;;;19.65;14.25;;;;;;;20.66;100.00;99864.78;20979532;28;20060;-69
2022/06/22 14:29:58;;;;;;;23.65;14.68;;;;;;;20.93;100.00;99846.97;20980880;28;20044;-69
2022/06/22 14:40:03;;;;;;;22.15;15.80;;;;;;;21.40;100.00;99842.03;20980388;28;20048;-68
2022/06/22 14:50:30;;;;;;;20.55;16.13;;;;;;;21.44;100.00;99835.56;20980556;28;20079;-67
2022/06/22 15:00:44;;;;;;;23.15;17.17;;;;;;;21.43;100.00;99834.72;20977081;28;20040;-68
2022/06/22 15:10:52;;;;;;;23.70;17.85;;;;;;;21.42;100.00;99848.13;20968541;28;20049;-66
2022/06/22 15:21:17;;;;;;;24.30;18.10;;;;;;;21.18;100.00;99854.16;20894960;28;20564;-66
2022/06/22 15:31:33;;;;;;;24.95;17.65;;;;;;;21.36;100.00;99853.88;20892586;28;20067;-66
2022/06/22 15:41:54;;;;;;;22.80;17.83;;;;;;;21.33;100.00;99848.78;20891513;28;20041;-66
2022/06/22 15:52:06;;;;;;;22.15;16.50;;;;;;;20.97;100.00;99853.78;20893643;28;20135;-69
2022/06/22 16:02:32;;;;;;;22.48;17.75;;;;;;;21.04;100.00;99854.25;20893559;28;20044;-68
2022/06/22 16:23:47;;;;;;;33.83;25.42;;;;;;;21.08;100.00;99797.19;20888666;28;20045;-71
2022/06/22 16:34:00;;;;;;;29.27;22.80;;;;;;;21.47;100.00;99787.41;20886900;28;20536;-70
2022/06/22 16:44:10;;;;;;;32.00;24.52;;;;;;;21.55;100.00;99787.69;20885906;28;20052;-68
2022/06/22 16:54:26;;;;;;;29.40;23.92;;;;;;;21.46;100.00;99767.91;20887201;28;20063;-68
2022/06/22 17:04:46;;;;;;;29.70;23.45;;;;;;;21.56;100.00;99759.22;20883989;28;20059;-68
2022/06/22 17:14:54;;;;;;;29.48;22.92;;;;;;;21.68;100.00;99769.88;20905581;28;20037;-69
2022/06/22 17:25:07;;;;;;;24.45;19.55;;;;;;;21.78;100.00;99805.56;20885816;28;20053;-69
2022/06/22 17:35:38;;;;;;;35.40;24.63;;;;;;;21.63;100.00;99862.59;20885489;28;20432;-68
2022/06/22 17:45:50;;;;;;;26.63;23.00;;;;;;;21.40;100.00;99871.34;20891191;28;20049;-67
2022/06/22 17:55:57;;;;;;;28.17;21.80;;;;;;;21.18;100.00;99882.59;20905127;28;20103;-67
2022/06/22 18:06:05;;;;;;;26.17;19.67;;;;;;;21.07;100.00;99870.00;20902702;28;20047;-68
2022/06/22 18:16:11;;;;;;;27.27;18.85;;;;;;;21.01;100.00;99865.09;20905748;28;20047;-67
2022/06/22 18:26:19;;;;;;;23.05;17.08;;;;;;;20.94;100.00;99858.50;20901755;28;20064;-67
2022/06/22 18:36:40;;;;;;;26.45;19.00;;;;;;;20.97;100.00;99855.59;20894957;28;20576;-67
2022/06/22 18:46:53;;;;;;;23.40;17.73;;;;;;;21.10;100.00;99864.47;20896232;28;20044;-68
2022/06/22 18:57:05;;;;;;;23.85;18.23;;;;;;;21.09;100.00;99861.91;20901927;28;20438;-67
2022/06/22 19:07:14;;;;;;;26.95;20.33;;;;;;;20.94;100.00;99837.19;20901056;28;20444;-68
2022/06/22 19:17:38;;;;;;;36.00;22.90;;;;;;;20.67;100.00;99838.06;20900169;28;20051;-68
2022/06/22 19:28:19;;;;;;;24.90;16.60;;;;;;;20.58;100.00;99821.88;20891577;28;20048;-67
2022/06/22 19:38:47;;;;;;;24.90;18.83;;;;;;;20.46;100.00;99815.53;20891470;28;20049;-68
2022/06/22 19:49:13;;;;;;;26.25;19.00;;;;;;;20.27;100.00;99838.97;20894252;28;20057;-69
2022/06/22 19:59:17;;;;;;;22.58;18.95;;;;;;;20.06;100.00;99850.00;20890777;28;20060;-69
2022/06/22 20:09:33;;;;;;;24.40;17.80;;;;;;;20.01;100.00;99868.06;20894000;28;20456;-68
2022/06/22 20:19:34;;;;;;;26.00;21.48;;;;;;;19.92;100.00;99868.63;20965744;28;20381;-66
2022/06/22 20:29:48;;;;;;;26.30;20.27;;;;;;;19.50;100.00;99857.03;20965850;28;20044;-65
2022/06/22 20:39:55;;;;;;;25.63;22.13;;;;;;;19.37;100.00;99874.66;20889698;28;20437;-66
2022/06/22 20:50:24;;;;;;;28.20;21.08;;;;;;;19.26;100.00;99906.28;20885914;28;20504;-66
2022/06/22 21:00:27;;;;;;;29.23;21.73;;;;;;;19.17;100.00;99932.44;20931106;28;20539;-67
2022/06/22 21:10:33;;;;;;;28.17;18.58;;;;;;;19.00;100.00;99959.09;20968529;28;20052;-67
2022/06/22 21:20:37;;;;;;;23.73;18.13;;;;;;;19.01;100.00;99957.28;20968903;28;20045;-68
2022/06/22 21:30:40;;;;;;;23.92;19.02;;;;;;;18.75;100.00;99962.31;20968523;28;20044;-68
2022/06/22 21:41:09;;;;;;;25.70;19.27;;;;;;;18.58;100.00;99972.94;20964533;28;20489;-67
2022/06/22 21:51:22;;;;;;;27.70;21.73;;;;;;;18.66;100.00;100007.88;20966427;28;20044;-67
2022/06/22 22:01:37;;;;;;;29.60;20.58;;;;;;;18.57;100.00;99966.81;20966639;28;20048;-67
2022/06/22 22:11:50;;;;;;;32.08;22.80;;;;;;;18.74;100.00;99984.47;20965907;28;20052;-67
2022/06/22 22:21:57;;;;;;;31.65;23.58;;;;;;;18.74;100.00;99986.28;20969202;28;20132;-68
2022/06/22 22:31:59;;;;;;;39.90;25.67;;;;;;;18.73;100.00;100009.25;20969306;28;20049;-67
2022/06/22 22:42:07;;;;;;;36.40;24.70;;;;;;;18.78;100.00;100003.69;20982297;28;20045;-67
2022/06/22 22:52:11;;;;;;;33.05;21.42;;;;;;;18.74;100.00;99999.53;20981574;28;20131;-68
2022/06/22 23:02:24;;;;;;;32.75;21.70;;;;;;;18.54;100.00;99977.59;20981028;28;20047;-68
2022/06/22 23:12:29;;;;;;;32.40;20.43;;;;;;;18.55;100.00;99984.59;20980308;28;20048;-68
2022/06/22 23:22:35;;;;;;;28.60;16.92;;;;;;;18.52;100.00;99999.81;20956398;28;20677;-67
2022/06/22 23:32:43;;;;;;;23.70;14.95;;;;;;;18.71;100.00;100003.19;20895401;28;20048;-66
2022/06/22 23:42:46;;;;;;;23.48;16.52;;;;;;;18.81;100.00;100009.69;20895222;28;20428;-67
2022/06/22 23:52:57;;;;;;;25.63;16.27;;;;;;;18.67;100.00;99997.16;20894391;28;20055;-67
